sensor_id;sensor_type;location;lat;lon;timestamp;pressure;altitude;pressure_sealevel;temperature;humidity
43683;BME280;29285;52.128;21.060;2023-03-04T00:02:03;100057.27;;;0.44;100.00
43683;BME280;29285;52.128;21.060;2023-03-04T00:07:04;100049.02;;;0.42;100.00
43683;BME280;29285;52.128;21.060;2023-03-04T00:12:05;100046.20;;;0.45;100.00
43683;BME280;29285;52.128;21.060;2023-03-04T00:17:08;100039.45;;;0.40;100.00
43683;BME280;29285;52.128;21.060;2023-03-04T00:22:09;100039.83;;;0.43;100.00
43683;BME280;29285;52.128;21.060;2023-03-04T00:27:10;100034.02;;;0.43;100.00
43683;BME280;29285;52.128;21.060;2023-03-04T00:32:11;100033.73;;;0.46;100.00
43683;BME280;29285;52.128;21.060;2023-03-04T00:37:12;100026.95;;;0.47;100.00
43683;BME280;29285;52.128;21.060;2023-03-04T00:42:14;100021.12;;;0.46;100.00
43683;BME280;29285;52.128;21.060;2023-03-04T00:47:15;100012.09;;;0.47;100.00
43683;BME280;29285;52.128;21.060;2023-03-04T00:52:16;99996.29;;;0.43;100.00
43683;BME280;29285;52.128;21.060;2023-03-04T00:57:17;99994.52;;;0.47;100.00
43683;BME280;29285;52.128;21.060;2023-03-04T01:02:18;99991.63;;;0.48;100.00
43683;BME280;29285;52.128;21.060;2023-03-04T01:07:20;99983.56;;;0.46;100.00
43683;BME280;29285;52.128;21.060;2023-03-04T01:12:21;99972.92;;;0.43;100.00
43683;BME280;29285;52.128;21.060;2023-03-04T01:17:22;99970.41;;;0.46;100.00
43683;BME280;29285;52.128;21.060;2023-03-04T01:22:23;99955.34;;;0.43;100.00
43683;BME280;29285;52.128;21.060;2023-03-04T01:27:24;99947.60;;;0.40;100.00
43683;BME280;29285;52.128;21.060;2023-03-04T01:32:25;99944.16;;;0.39;100.00
43683;BME280;29285;52.128;21.060;2023-03-04T01:37:26;99935.94;;;0.36;100.00
43683;BME280;29285;52.128;21.060;2023-03-04T01:42:29;99907.87;;;0.33;100.00
43683;BME280;29285;52.128;21.060;2023-03-04T01:47:32;99891.94;;;0.30;100.00
43683;BME280;29285;52.128;21.060;2023-03-04T01:52:34;99857.73;;;0.25;100.00
43683;BME280;29285;52.128;21.060;2023-03-04T01:57:35;99867.92;;;0.23;100.00
43683;BME280;29285;52.128;21.060;2023-03-04T02:02:36;99846.16;;;0.17;100.00
43683;BME280;29285;52.128;21.060;2023-03-04T02:07:37;99848.39;;;0.18;100.00
43683;BME280;29285;52.128;21.060;2023-03-04T02:12:38;99827.05;;;0.18;100.00
43683;BME280;29285;52.128;21.060;2023-03-04T02:17:39;99807.39;;;0.16;100.00
43683;BME280;29285;52.128;21.060;2023-03-04T02:22:42;99794.55;;;0.13;100.00
43683;BME280;29285;52.128;21.060;2023-03-04T02:27:46;99781.58;;;0.12;100.00
43683;BME280;29285;52.128;21.060;2023-03-04T02:32:47;99787.95;;;0.16;100.00
43683;BME280;29285;52.128;21.060;2023-03-04T02:37:48;99787.41;;;0.25;100.00
43683;BME280;29285;52.128;21.060;2023-03-04T02:42:49;99798.63;;;0.32;100.00
43683;BME280;29285;52.128;21.060;2023-03-04T02:47:50;99789.83;;;0.36;100.00
43683;BME280;29285;52.128;21.060;2023-03-04T02:52:51;99791.98;;;0.42;100.00
43683;BME280;29285;52.128;21.060;2023-03-04T02:57:52;99792.45;;;0.50;100.00
43683;BME280;29285;52.128;21.060;2023-03-04T03:02:53;99795.63;;;0.57;100.00
43683;BME280;29285;52.128;21.060;2023-03-04T03:07:56;99786.98;;;0.60;100.00
43683;BME280;29285;52.128;21.060;2023-03-04T03:12:57;99781.36;;;0.61;100.00
43683;BME280;29285;52.128;21.060;2023-03-04T03:17:58;99778.67;;;0.64;100.00
43683;BME280;29285;52.128;21.060;2023-03-04T03:22:58;99779.08;;;0.68;100.00
43683;BME280;29285;52.128;21.060;2023-03-04T03:27:59;99778.08;;;0.70;100.00
43683;BME280;29285;52.128;21.060;2023-03-04T03:33:00;99771.84;;;0.76;100.00
43683;BME280;29285;52.128;21.060;2023-03-04T03:38:01;99762.84;;;0.80;100.00
43683;BME280;29285;52.128;21.060;2023-03-04T03:43:02;99757.45;;;0.85;100.00
43683;BME280;29285;52.128;21.060;2023-03-04T03:48:03;99756.83;;;0.88;100.00
43683;BME280;29285;52.128;21.060;2023-03-04T03:53:04;99752.39;;;0.88;100.00
43683;BME280;29285;52.128;21.060;2023-03-04T03:58:05;99746.89;;;0.86;100.00
43683;BME280;29285;52.128;21.060;2023-03-04T04:03:06;99751.85;;;0.87;100.00
43683;BME280;29285;52.128;21.060;2023-03-04T04:08:09;99744.73;;;0.90;100.00
43683;BME280;29285;52.128;21.060;2023-03-04T04:13:10;99745.45;;;0.95;100.00
43683;BME280;29285;52.128;21.060;2023-03-04T04:18:11;99752.30;;;0.96;100.00
43683;BME280;29285;52.128;21.060;2023-03-04T04:23:13;99749.95;;;0.99;100.00
43683;BME280;29285;52.128;21.060;2023-03-04T04:28:13;99740.58;;;1.00;100.00
43683;BME280;29285;52.128;21.060;2023-03-04T04:33:14;99735.48;;;1.02;100.00
43683;BME280;29285;52.128;21.060;2023-03-04T04:38:15;99740.65;;;1.04;100.00
43683;BME280;29285;52.128;21.060;2023-03-04T04:43:16;99734.86;;;1.07;100.00
43683;BME280;29285;52.128;21.060;2023-03-04T04:48:17;99730.27;;;1.08;100.00
43683;BME280;29285;52.128;21.060;2023-03-04T04:53:18;99728.89;;;1.08;100.00
43683;BME280;29285;52.128;21.060;2023-03-04T04:58:18;99724.63;;;1.07;100.00
43683;BME280;29285;52.128;21.060;2023-03-04T05:03:19;99728.59;;;1.11;100.00
43683;BME280;29285;52.128;21.060;2023-03-04T05:08:20;99718.54;;;1.13;100.00
43683;BME280;29285;52.128;21.060;2023-03-04T05:13:22;99720.09;;;1.15;100.00
43683;BME280;29285;52.128;21.060;2023-03-04T05:18:23;99716.20;;;1.17;100.00
43683;BME280;29285;52.128;21.060;2023-03-04T05:23:25;99714.67;;;1.18;100.00
43683;BME280;29285;52.128;21.060;2023-03-04T05:28:26;99698.61;;;1.17;100.00
43683;BME280;29285;52.128;21.060;2023-03-04T05:33:27;99697.73;;;1.17;100.00
43683;BME280;29285;52.128;21.060;2023-03-04T05:38:29;99690.77;;;1.20;100.00
43683;BME280;29285;52.128;21.060;2023-03-04T05:43:30;99691.33;;;1.24;100.00
43683;BME280;29285;52.128;21.060;2023-03-04T05:48:32;99694.27;;;1.27;100.00
43683;BME280;29285;52.128;21.060;2023-03-04T05:53:34;99689.99;;;1.26;100.00
43683;BME280;29285;52.128;21.060;2023-03-04T05:58:37;99689.69;;;1.30;100.00
43683;BME280;29285;52.128;21.060;2023-03-04T06:03:38;99685.80;;;1.33;100.00
43683;BME280;29285;52.128;21.060;2023-03-04T06:08:39;99681.87;;;1.33;100.00
43683;BME280;29285;52.128;21.060;2023-03-04T06:13:40;99676.41;;;1.35;100.00
43683;BME280;29285;52.128;21.060;2023-03-04T06:18:41;99667.21;;;1.37;100.00
43683;BME280;29285;52.128;21.060;2023-03-04T06:23:43;99660.70;;;1.37;100.00
43683;BME280;29285;52.128;21.060;2023-03-04T06:28:45;99654.55;;;1.38;100.00
43683;BME280;29285;52.128;21.060;2023-03-04T06:33:46;99656.82;;;1.41;100.00
43683;BME280;29285;52.128;21.060;2023-03-04T06:38:47;99662.13;;;1.42;100.00
43683;BME280;29285;52.128;21.060;2023-03-04T06:43:48;99662.81;;;1.42;100.00
43683;BME280;29285;52.128;21.060;2023-03-04T06:48:49;99655.52;;;1.47;100.00
43683;BME280;29285;52.128;21.060;2023-03-04T06:53:50;99660.64;;;1.48;100.00
43683;BME280;29285;52.128;21.060;2023-03-04T06:58:51;99667.80;;;1.47;100.00
43683;BME280;29285;52.128;21.060;2023-03-04T07:03:53;99672.29;;;1.49;100.00
43683;BME280;29285;52.128;21.060;2023-03-04T07:08:54;99668.16;;;1.48;100.00
43683;BME280;29285;52.128;21.060;2023-03-04T07:13:55;99672.50;;;1.53;100.00
43683;BME280;29285;52.128;21.060;2023-03-04T07:18:56;99669.10;;;1.56;100.00
43683;BME280;29285;52.128;21.060;2023-03-04T07:23:57;99661.76;;;1.57;100.00
43683;BME280;29285;52.128;21.060;2023-03-04T07:28:59;99658.20;;;1.59;100.00
43683;BME280;29285;52.128;21.060;2023-03-04T07:34:01;99656.70;;;1.64;100.00
43683;BME280;29285;52.128;21.060;2023-03-04T07:39:03;99651.24;;;1.65;100.00
43683;BME280;29285;52.128;21.060;2023-03-04T07:44:04;99647.30;;;1.64;100.00
43683;BME280;29285;52.128;21.060;2023-03-04T07:49:06;99639.13;;;1.68;100.00
43683;BME280;29285;52.128;21.060;2023-03-04T07:54:08;99637.56;;;1.66;100.00
43683;BME280;29285;52.128;21.060;2023-03-04T07:59:09;99634.98;;;1.66;100.00
43683;BME280;29285;52.128;21.060;2023-03-04T08:04:10;99636.39;;;1.67;100.00
43683;BME280;29285;52.128;21.060;2023-03-04T08:09:11;99638.29;;;1.71;100.00
43683;BME280;29285;52.128;21.060;2023-03-04T08:14:13;99634.55;;;1.72;100.00
43683;BME280;29285;52.128;21.060;2023-03-04T08:19:14;99626.86;;;1.73;100.00
43683;BME280;29285;52.128;21.060;2023-03-04T08:24:15;99628.08;;;1.75;100.00
43683;BME280;29285;52.128;21.060;2023-03-04T08:29:18;99627.56;;;1.77;100.00
43683;BME280;29285;52.128;21.060;2023-03-04T08:34:21;99619.20;;;1.78;100.00
43683;BME280;29285;52.128;21.060;2023-03-04T08:39:22;99620.74;;;1.79;100.00
43683;BME280;29285;52.128;21.060;2023-03-04T08:44:23;99619.91;;;1.82;100.00
43683;BME280;29285;52.128;21.060;2023-03-04T08:49:24;99617.91;;;1.88;100.00
43683;BME280;29285;52.128;21.060;2023-03-04T08:54:25;99618.63;;;1.92;100.00
43683;BME280;29285;52.128;21.060;2023-03-04T08:59:26;99616.26;;;1.97;100.00
43683;BME280;29285;52.128;21.060;2023-03-04T09:04:27;99621.05;;;1.96;100.00
43683;BME280;29285;52.128;21.060;2023-03-04T09:09:28;99616.09;;;1.96;100.00
43683;BME280;29285;52.128;21.060;2023-03-04T09:14:29;99611.32;;;2.00;100.00
43683;BME280;29285;52.128;21.060;2023-03-04T09:19:30;99604.64;;;2.00;100.00
43683;BME280;29285;52.128;21.060;2023-03-04T09:24:31;99598.82;;;1.98;100.00
43683;BME280;29285;52.128;21.060;2023-03-04T09:29:32;99587.21;;;2.02;100.00
43683;BME280;29285;52.128;21.060;2023-03-04T09:34:33;99576.80;;;2.05;100.00
43683;BME280;29285;52.128;21.060;2023-03-04T09:39:34;99566.10;;;2.17;100.00
43683;BME280;29285;52.128;21.060;2023-03-04T09:44:35;99565.95;;;2.23;100.00
43683;BME280;29285;52.128;21.060;2023-03-04T09:49:37;99561.86;;;2.26;100.00
43683;BME280;29285;52.128;21.060;2023-03-04T09:54:57;99562.21;;;2.29;100.00
43683;BME280;29285;52.128;21.060;2023-03-04T10:00:04;99557.76;;;2.28;100.00
43683;BME280;29285;52.128;21.060;2023-03-04T10:05:13;99554.36;;;2.30;100.00
43683;BME280;29285;52.128;21.060;2023-03-04T10:10:18;99542.05;;;2.32;100.00
43683;BME280;29285;52.128;21.060;2023-03-04T10:15:23;99539.31;;;2.36;100.00
43683;BME280;29285;52.128;21.060;2023-03-04T10:20:30;99531.64;;;2.41;100.00
43683;BME280;29285;52.128;21.060;2023-03-04T10:25:32;99529.27;;;2.45;100.00
43683;BME280;29285;52.128;21.060;2023-03-04T10:30:47;99527.05;;;2.48;100.00
43683;BME280;29285;52.128;21.060;2023-03-04T10:40:58;99511.67;;;2.59;100.00
43683;BME280;29285;52.128;21.060;2023-03-04T10:45:59;99509.97;;;2.65;100.00
43683;BME280;29285;52.128;21.060;2023-03-04T10:51:20;99506.20;;;2.65;100.00
43683;BME280;29285;52.128;21.060;2023-03-04T10:56:31;99489.42;;;2.68;100.00
43683;BME280;29285;52.128;21.060;2023-03-04T11:01:33;99489.78;;;2.73;100.00
43683;BME280;29285;52.128;21.060;2023-03-04T15:37:38;99477.49;;;3.72;100.00
43683;BME280;29285;52.128;21.060;2023-03-04T15:42:39;99487.79;;;3.63;100.00
43683;BME280;29285;52.128;21.060;2023-03-04T15:47:40;99505.64;;;3.51;100.00
43683;BME280;29285;52.128;21.060;2023-03-04T15:52:41;99514.04;;;3.47;100.00
43683;BME280;29285;52.128;21.060;2023-03-04T15:57:43;99528.79;;;3.42;100.00
43683;BME280;29285;52.128;21.060;2023-03-04T16:02:45;99552.11;;;3.33;100.00
43683;BME280;29285;52.128;21.060;2023-03-04T16:07:47;99570.58;;;3.09;100.00
43683;BME280;29285;52.128;21.060;2023-03-04T16:12:49;99582.52;;;2.88;100.00
43683;BME280;29285;52.128;21.060;2023-03-04T16:17:50;99596.18;;;2.75;100.00
43683;BME280;29285;52.128;21.060;2023-03-04T16:22:57;99602.95;;;2.59;100.00
43683;BME280;29285;52.128;21.060;2023-03-04T16:27:59;99615.39;;;2.47;100.00
43683;BME280;29285;52.128;21.060;2023-03-04T16:33:02;99628.88;;;2.37;100.00
43683;BME280;29285;52.128;21.060;2023-03-04T16:38:16;99634.00;;;2.36;100.00
43683;BME280;29285;52.128;21.060;2023-03-04T16:43:19;99639.77;;;2.28;100.00
43683;BME280;29285;52.128;21.060;2023-03-04T16:48:20;99666.56;;;2.16;100.00
43683;BME280;29285;52.128;21.060;2023-03-04T16:53:23;99667.45;;;1.99;100.00
43683;BME280;29285;52.128;21.060;2023-03-04T16:58:26;99682.77;;;1.89;100.00
43683;BME280;29285;52.128;21.060;2023-03-04T17:03:27;99689.90;;;1.85;100.00
43683;BME280;29285;52.128;21.060;2023-03-04T17:08:28;99689.30;;;1.75;100.00
43683;BME280;29285;52.128;21.060;2023-03-04T17:13:29;99692.30;;;1.66;100.00
43683;BME280;29285;52.128;21.060;2023-03-04T17:18:30;99701.52;;;1.65;100.00
43683;BME280;29285;52.128;21.060;2023-03-04T17:23:31;99707.23;;;1.71;100.00
43683;BME280;29285;52.128;21.060;2023-03-04T17:28:32;99728.52;;;1.80;100.00
43683;BME280;29285;52.128;21.060;2023-03-04T17:33:33;99723.89;;;1.78;100.00
43683;BME280;29285;52.128;21.060;2023-03-04T17:38:34;99736.34;;;1.76;100.00
43683;BME280;29285;52.128;21.060;2023-03-04T17:43:35;99746.75;;;1.73;100.00
43683;BME280;29285;52.128;21.060;2023-03-04T17:48:36;99752.35;;;1.69;100.00
43683;BME280;29285;52.128;21.060;2023-03-04T17:53:37;99760.05;;;1.55;100.00
43683;BME280;29285;52.128;21.060;2023-03-04T17:58:38;99760.13;;;1.47;100.00
43683;BME280;29285;52.128;21.060;2023-03-04T18:03:40;99766.36;;;1.38;100.00
43683;BME280;29285;52.128;21.060;2023-03-04T18:08:41;99773.50;;;1.22;100.00
43683;BME280;29285;52.128;21.060;2023-03-04T18:13:42;99781.63;;;1.16;100.00
43683;BME280;29285;52.128;21.060;2023-03-04T18:18:43;99783.45;;;1.12;100.00
43683;BME280;29285;52.128;21.060;2023-03-04T18:23:44;99787.50;;;1.08;99.99
43683;BME280;29285;52.128;21.060;2023-03-04T18:28:45;99799.80;;;1.08;99.67
43683;BME280;29285;52.128;21.060;2023-03-04T18:33:47;99812.60;;;1.07;99.21
43683;BME280;29285;52.128;21.060;2023-03-04T18:38:48;99815.05;;;1.10;98.75
43683;BME280;29285;52.128;21.060;2023-03-04T18:43:49;99815.71;;;1.09;98.25
43683;BME280;29285;52.128;21.060;2023-03-04T18:48:51;99824.33;;;1.02;97.48
43683;BME280;29285;52.128;21.060;2023-03-04T18:53:53;99828.36;;;0.98;96.69
43683;BME280;29285;52.128;21.060;2023-03-04T18:58:54;99832.76;;;0.95;96.38
43683;BME280;29285;52.128;21.060;2023-03-04T19:03:55;99830.63;;;0.89;95.72
43683;BME280;29285;52.128;21.060;2023-03-04T19:08:58;99838.45;;;0.88;95.28
43683;BME280;29285;52.128;21.060;2023-03-04T19:14:00;99842.21;;;0.87;94.71
43683;BME280;29285;52.128;21.060;2023-03-04T19:19:01;99845.35;;;0.82;94.00
43683;BME280;29285;52.128;21.060;2023-03-04T19:24:02;99851.50;;;0.81;93.86
43683;BME280;29285;52.128;21.060;2023-03-04T19:29:03;99853.61;;;0.84;93.33
43683;BME280;29285;52.128;21.060;2023-03-04T19:34:05;99858.10;;;0.88;93.17
43683;BME280;29285;52.128;21.060;2023-03-04T19:39:07;99860.40;;;0.92;92.74
43683;BME280;29285;52.128;21.060;2023-03-04T19:44:08;99872.64;;;0.88;92.42
43683;BME280;29285;52.128;21.060;2023-03-04T19:49:09;99877.70;;;0.84;91.67
43683;BME280;29285;52.128;21.060;2023-03-04T19:54:09;99881.89;;;0.80;91.23
43683;BME280;29285;52.128;21.060;2023-03-04T19:59:11;99883.39;;;0.78;90.78
43683;BME280;29285;52.128;21.060;2023-03-04T20:04:13;99884.67;;;0.72;90.37
43683;BME280;29285;52.128;21.060;2023-03-04T20:09:14;99887.29;;;0.66;89.96
43683;BME280;29285;52.128;21.060;2023-03-04T20:14:16;99890.00;;;0.64;89.52
43683;BME280;29285;52.128;21.060;2023-03-04T20:19:17;99890.05;;;0.57;89.11
43683;BME280;29285;52.128;21.060;2023-03-04T20:24:18;99889.40;;;0.50;88.78
43683;BME280;29285;52.128;21.060;2023-03-04T20:29:22;99891.39;;;0.47;88.29
43683;BME280;29285;52.128;21.060;2023-03-04T20:34:23;99887.10;;;0.54;88.03
43683;BME280;29285;52.128;21.060;2023-03-04T20:39:26;99891.06;;;0.67;88.04
43683;BME280;29285;52.128;21.060;2023-03-04T20:44:28;99894.99;;;0.77;88.03
43683;BME280;29285;52.128;21.060;2023-03-04T20:49:29;99891.23;;;0.87;88.03
43683;BME280;29285;52.128;21.060;2023-03-04T20:54:31;99890.04;;;0.87;87.96
43683;BME280;29285;52.128;21.060;2023-03-04T20:59:32;99890.10;;;0.91;87.75
43683;BME280;29285;52.128;21.060;2023-03-04T21:04:33;99891.84;;;0.92;87.49
43683;BME280;29285;52.128;21.060;2023-03-04T21:09:34;99889.60;;;0.92;87.26
43683;BME280;29285;52.128;21.060;2023-03-04T21:14:35;99893.71;;;0.93;87.12
43683;BME280;29285;52.128;21.060;2023-03-04T21:19:37;99889.71;;;0.78;86.51
43683;BME280;29285;52.128;21.060;2023-03-04T21:24:43;99890.15;;;0.63;85.97
43683;BME280;29285;52.128;21.060;2023-03-04T21:29:44;99892.97;;;0.49;85.59
43683;BME280;29285;52.128;21.060;2023-03-04T21:34:45;99899.91;;;0.36;85.17
43683;BME280;29285;52.128;21.060;2023-03-04T21:39:48;99893.16;;;0.22;84.65
43683;BME280;29285;52.128;21.060;2023-03-04T21:44:49;99894.06;;;0.15;84.44
43683;BME280;29285;52.128;21.060;2023-03-04T21:49:50;99898.67;;;0.07;84.03
43683;BME280;29285;52.128;21.060;2023-03-04T21:54:51;99899.21;;;0.08;83.87
43683;BME280;29285;52.128;21.060;2023-03-04T21:59:51;99899.46;;;0.04;83.66
43683;BME280;29285;52.128;21.060;2023-03-04T22:04:52;99896.95;;;-0.02;83.20
43683;BME280;29285;52.128;21.060;2023-03-04T22:09:53;99899.80;;;-0.06;83.12
43683;BME280;29285;52.128;21.060;2023-03-04T22:14:55;99898.88;;;-0.09;82.96
43683;BME280;29285;52.128;21.060;2023-03-04T22:19:55;99891.80;;;-0.13;82.58
43683;BME280;29285;52.128;21.060;2023-03-04T22:24:56;99896.05;;;-0.15;82.50
43683;BME280;29285;52.128;21.060;2023-03-04T22:29:59;99897.27;;;-0.21;82.13
43683;BME280;29285;52.128;21.060;2023-03-04T22:35:00;99894.20;;;-0.29;81.83
43683;BME280;29285;52.128;21.060;2023-03-04T22:40:01;99892.96;;;-0.31;81.59
43683;BME280;29285;52.128;21.060;2023-03-04T22:45:02;99893.91;;;-0.34;81.39
43683;BME280;29285;52.128;21.060;2023-03-04T22:50:04;99894.66;;;-0.39;81.25
43683;BME280;29285;52.128;21.060;2023-03-04T22:55:05;99899.42;;;-0.47;81.01
43683;BME280;29285;52.128;21.060;2023-03-04T23:05:14;99897.70;;;-0.33;81.05
43683;BME280;29285;52.128;21.060;2023-03-04T23:10:24;99900.02;;;-0.37;80.90
43683;BME280;29285;52.128;21.060;2023-03-04T23:15:25;99894.98;;;-0.41;80.76
43683;BME280;29285;52.128;21.060;2023-03-04T23:20:26;99894.36;;;-0.46;80.59
43683;BME280;29285;52.128;21.060;2023-03-04T23:25:27;99893.91;;;-0.43;80.68
43683;BME280;29285;52.128;21.060;2023-03-04T23:30:27;99890.85;;;-0.43;80.65
43683;BME280;29285;52.128;21.060;2023-03-04T23:35:28;99888.55;;;-0.46;80.44
43683;BME280;29285;52.128;21.060;2023-03-04T23:40:29;99888.09;;;-0.51;80.28
43683;BME280;29285;52.128;21.060;2023-03-04T23:45:30;99889.53;;;-0.56;80.12
43683;BME280;29285;52.128;21.060;2023-03-04T23:50:32;99883.55;;;-0.57;80.07
43683;BME280;29285;52.128;21.060;2023-03-04T23:55:35;99886.39;;;-0.59;80.02
